createdAt,value
2022-11-26T00:00:52.988Z,8.10
2022-11-26T00:03:20.603Z,7.68
2022-11-26T00:05:53.823Z,7.40
2022-11-26T00:08:22.913Z,6.75
2022-11-26T00:10:52.796Z,7.20
2022-11-26T00:13:23.133Z,7.72
2022-11-26T00:15:51.205Z,7.50
2022-11-26T00:18:23.515Z,7.97
2022-11-26T00:20:54.901Z,7.47
2022-11-26T00:23:25.843Z,7.70
2022-11-26T00:26:04.024Z,8.40
2022-11-26T00:28:36.423Z,6.82
2022-11-26T00:31:12.704Z,7.32
2022-11-26T00:33:40.459Z,6.15
2022-11-26T00:36:30.061Z,7.10
2022-11-26T00:39:06.234Z,6.35
2022-11-26T00:41:36.317Z,6.55
2022-11-26T00:44:03.762Z,5.78
2022-11-26T00:46:31.088Z,7.00
2022-11-26T00:48:58.288Z,7.53
2022-11-26T00:51:27.623Z,6.80
2022-11-26T00:53:59.605Z,6.97
2022-11-26T00:56:27.523Z,7.38
2022-11-26T00:58:55.482Z,7.05
2022-11-26T01:01:25.879Z,7.10
2022-11-26T01:03:53.548Z,7.25
2022-11-26T01:06:23.991Z,6.93
2022-11-26T01:08:51.889Z,6.78
2022-11-26T01:11:24.596Z,6.88
2022-11-26T01:13:54.093Z,6.72
2022-11-26T01:16:30.713Z,7.57
2022-11-26T01:19:05.669Z,5.78
2022-11-26T01:21:33.499Z,5.75
2022-11-26T01:24:00.709Z,6.78
2022-11-26T01:26:34.330Z,6.25
2022-11-26T01:29:02.008Z,7.10
2022-11-26T01:31:31.955Z,6.13
2022-11-26T01:33:59.719Z,5.55
2022-11-26T01:36:38.227Z,6.72
2022-11-26T01:39:21.556Z,6.43
2022-11-26T01:42:26.475Z,6.15
2022-11-26T01:44:56.410Z,5.32
2022-11-26T01:47:28.228Z,5.70
2022-11-26T01:50:29.621Z,5.85
2022-11-26T01:53:05.258Z,5.13
2022-11-26T01:55:55.872Z,5.45
2022-11-26T01:58:39.529Z,5.10
2022-11-26T02:01:07.663Z,5.78
2022-11-26T02:03:45.476Z,5.72
2022-11-26T02:06:18.650Z,5.20
2022-11-26T02:08:46.533Z,4.93
2022-11-26T02:11:22.646Z,5.18
2022-11-26T02:13:53.816Z,5.13
2022-11-26T02:16:39.392Z,5.05
2022-11-26T02:19:19.922Z,5.07
2022-11-26T02:21:58.571Z,4.72
2022-11-26T02:24:49.736Z,4.70
2022-11-26T02:27:19.814Z,4.68
2022-11-26T02:30:19.638Z,5.10
2022-11-26T02:32:59.296Z,4.63
2022-11-26T02:35:41.307Z,4.38
2022-11-26T02:38:21.886Z,4.63
2022-11-26T02:40:49.533Z,4.43
2022-11-26T02:43:17.487Z,4.55
2022-11-26T02:45:51.295Z,4.57
2022-11-26T02:48:29.385Z,4.50
2022-11-26T02:51:08.384Z,4.47
2022-11-26T02:53:36.993Z,4.47
2022-11-26T02:56:12.443Z,4.18
2022-11-26T02:58:39.967Z,5.10
2022-11-26T03:01:16.869Z,4.15
2022-11-26T03:03:49.308Z,4.47
2022-11-26T03:06:17.982Z,4.45
2022-11-26T03:08:45.599Z,3.85
2022-11-26T03:11:13.389Z,4.35
2022-11-26T03:13:43.721Z,4.10
2022-11-26T03:16:13.307Z,4.40
2022-11-26T03:18:41.058Z,4.50
2022-11-26T03:21:08.623Z,4.07
2022-11-26T03:23:35.882Z,4.53
2022-11-26T03:26:03.069Z,4.43
2022-11-26T03:28:30.337Z,4.53
2022-11-26T03:30:57.575Z,4.30
2022-11-26T03:33:24.830Z,4.22
2022-11-26T03:35:52.046Z,3.65
2022-11-26T03:38:24.724Z,3.92
2022-11-26T03:41:05.197Z,4.57
2022-11-26T03:43:32.488Z,3.72
2022-11-26T03:46:00.337Z,4.25
2022-11-26T03:48:27.597Z,3.45
2022-11-26T03:50:55.228Z,3.50
2022-11-26T03:53:22.475Z,3.38
2022-11-26T03:55:49.867Z,3.92
2022-11-26T03:58:22.122Z,3.78
2022-11-26T04:00:51.880Z,4.03
2022-11-26T04:03:19.234Z,3.55
2022-11-26T04:05:46.571Z,4.13
2022-11-26T04:08:16.332Z,3.78
2022-11-26T04:10:43.567Z,3.40
2022-11-26T04:13:11.216Z,3.42
2022-11-26T04:15:38.398Z,3.67
2022-11-26T04:18:05.631Z,3.60
2022-11-26T04:20:32.900Z,3.78
2022-11-26T04:23:00.147Z,3.70
2022-11-26T04:25:27.390Z,3.85
2022-11-26T04:27:54.802Z,3.08
2022-11-26T04:30:22.724Z,3.08
2022-11-26T04:32:50.040Z,2.70
2022-11-26T04:35:17.392Z,3.08
2022-11-26T04:37:44.575Z,2.75
2022-11-26T04:40:12.336Z,2.58
2022-11-26T04:42:39.551Z,2.33
2022-11-26T04:45:07.304Z,2.83
2022-11-26T04:47:36.156Z,3.33
2022-11-26T04:50:06.962Z,3.40
2022-11-26T04:52:34.653Z,3.78
2022-11-26T04:55:06.805Z,3.97
2022-11-26T04:57:36.524Z,3.35
2022-11-26T05:00:08.155Z,3.67
2022-11-26T05:02:35.616Z,3.40
2022-11-26T05:05:03.465Z,3.38
2022-11-26T05:07:31.137Z,3.58
2022-11-26T05:09:58.808Z,3.15
2022-11-26T05:12:26.456Z,3.05
2022-11-26T05:14:53.714Z,3.15
2022-11-26T05:17:21.396Z,3.60
2022-11-26T05:19:50.727Z,3.28
2022-11-26T05:22:18.445Z,3.58
2022-11-26T05:24:48.591Z,3.03
2022-11-26T05:27:15.986Z,2.92
2022-11-26T05:29:43.234Z,3.72
2022-11-26T05:32:10.474Z,3.95
2022-11-26T05:34:40.744Z,3.45
2022-11-26T05:37:08.671Z,3.30
2022-11-26T05:39:37.316Z,2.75
2022-11-26T05:42:08.916Z,3.08
2022-11-26T05:44:39.608Z,2.85
2022-11-26T05:47:07.041Z,2.90
2022-11-26T05:49:34.325Z,3.38
2022-11-26T05:52:01.565Z,3.03
2022-11-26T05:54:31.020Z,2.97
2022-11-26T05:57:00.300Z,2.90
2022-11-26T05:59:29.116Z,2.63
2022-11-26T06:01:58.694Z,2.35
2022-11-26T06:04:29.139Z,3.17
2022-11-26T06:06:56.543Z,2.47
2022-11-26T06:09:24.403Z,2.85
2022-11-26T06:11:54.103Z,2.38
2022-11-26T06:14:21.795Z,2.58
2022-11-26T06:16:54.130Z,3.08
2022-11-26T06:19:24.045Z,2.85
2022-11-26T06:21:51.738Z,2.95
2022-11-26T06:24:19.090Z,2.72
2022-11-26T06:26:46.736Z,2.47
2022-11-26T06:29:22.314Z,2.75
2022-11-26T06:31:52.177Z,2.72
2022-11-26T06:34:19.452Z,3.22
2022-11-26T06:36:46.851Z,2.95
2022-11-26T06:39:14.549Z,3.50
2022-11-26T06:41:41.857Z,2.95
2022-11-26T06:44:09.189Z,2.72
2022-11-26T06:46:36.608Z,2.80
2022-11-26T06:49:05.910Z,2.88
2022-11-26T06:51:34.068Z,3.47
2022-11-26T06:54:02.025Z,3.17
2022-11-26T06:56:32.322Z,3.45
2022-11-26T06:58:59.536Z,2.85
2022-11-26T07:01:27.288Z,3.10
2022-11-26T07:03:57.665Z,2.88
2022-11-26T07:06:33.279Z,3.17
2022-11-26T07:09:05.439Z,2.88
2022-11-26T07:11:33.495Z,2.90
2022-11-26T07:14:01.576Z,2.40
2022-11-26T07:16:29.094Z,2.10
2022-11-26T07:19:02.751Z,2.30
2022-11-26T07:21:30.943Z,2.40
2022-11-26T07:23:58.948Z,2.42
2022-11-26T07:26:26.176Z,2.33
2022-11-26T07:28:56.706Z,1.70
2022-11-26T07:31:27.189Z,2.53
2022-11-26T07:33:54.399Z,3.08
2022-11-26T07:36:25.251Z,2.80
2022-11-26T07:38:56.968Z,3.42
2022-11-26T07:41:25.957Z,4.15
2022-11-26T07:43:53.588Z,3.30
2022-11-26T07:46:23.549Z,3.63
2022-11-26T07:48:51.725Z,3.05
2022-11-26T07:51:24.454Z,3.63
2022-11-26T07:53:53.110Z,3.55
2022-11-26T07:56:20.906Z,3.55
2022-11-26T07:58:50.374Z,4.38
2022-11-26T08:01:21.038Z,4.78
2022-11-26T08:03:50.146Z,3.83
2022-11-26T08:06:21.012Z,3.67
2022-11-26T08:08:48.871Z,4.00
2022-11-26T08:11:20.140Z,3.28
2022-11-26T08:13:48.307Z,3.40
2022-11-26T08:16:16.079Z,3.13
2022-11-26T08:18:43.863Z,2.28
2022-11-26T08:21:13.680Z,3.72
2022-11-26T08:23:43.149Z,3.05
2022-11-26T08:26:23.881Z,3.85
2022-11-26T08:28:55.588Z,3.25
2022-11-26T08:31:24.857Z,3.08
2022-11-26T08:33:52.270Z,3.42
2022-11-26T08:36:20.057Z,2.67
2022-11-26T08:38:47.869Z,2.95
2022-11-26T08:41:15.328Z,2.47
2022-11-26T08:44:05.726Z,2.78
2022-11-26T08:46:32.734Z,2.90
2022-11-26T08:49:00.468Z,2.78
2022-11-26T08:51:28.177Z,3.60
2022-11-26T08:53:55.407Z,2.70
2022-11-26T08:56:23.194Z,2.03
2022-11-26T08:58:51.441Z,2.92
2022-11-26T09:01:20.511Z,2.70
2022-11-26T09:03:49.209Z,2.80
2022-11-26T09:06:17.589Z,2.75
2022-11-26T09:09:04.838Z,2.42
2022-11-26T09:11:34.489Z,2.63
2022-11-26T09:14:06.239Z,2.63
2022-11-26T09:16:33.883Z,2.30
2022-11-26T09:19:03.834Z,2.50
2022-11-26T09:21:31.955Z,2.53
2022-11-26T09:24:01.339Z,2.90
2022-11-26T09:26:31.594Z,2.65
2022-11-26T09:28:59.147Z,2.40
2022-11-26T09:31:27.190Z,2.53
2022-11-26T09:34:01.880Z,2.72
2022-11-26T09:36:32.150Z,2.38
2022-11-26T09:39:02.488Z,2.92
2022-11-26T09:41:44.262Z,2.47
2022-11-26T09:44:29.294Z,2.28
2022-11-26T09:47:12.016Z,2.63
2022-11-26T09:50:04.359Z,2.30
2022-11-26T09:52:52.231Z,2.70
2022-11-26T09:55:34.440Z,2.60
2022-11-26T09:58:01.826Z,2.65
2022-11-26T10:00:34.593Z,2.45
2022-11-26T10:03:04.809Z,2.90
2022-11-26T10:06:02.892Z,1.90
2022-11-26T10:08:51.528Z,2.35
2022-11-26T10:11:25.860Z,1.67
2022-11-26T10:14:14.143Z,1.98
2022-11-26T10:16:58.857Z,2.40
2022-11-26T10:19:47.662Z,1.70
2022-11-26T10:22:27.361Z,2.20
2022-11-26T10:24:58.080Z,2.17
2022-11-26T10:27:35.117Z,1.80
2022-11-26T10:30:16.653Z,2.03
2022-11-26T10:32:46.468Z,2.20
2022-11-26T10:35:18.045Z,2.15
2022-11-26T10:37:46.120Z,2.25
2022-11-26T10:40:25.541Z,2.28
2022-11-26T10:42:55.514Z,2.90
2022-11-26T10:45:35.336Z,2.13
2022-11-26T10:48:25.951Z,2.30
2022-11-26T10:51:01.892Z,2.35
2022-11-26T10:53:32.758Z,2.60
2022-11-26T10:56:06.274Z,2.47
2022-11-26T10:58:43.871Z,2.45
2022-11-26T11:01:15.291Z,2.67
2022-11-26T11:04:08.763Z,2.10
2022-11-26T11:06:44.177Z,2.38
2022-11-26T11:09:25.789Z,2.22
2022-11-26T11:12:19.511Z,1.95
2022-11-26T11:14:50.743Z,3.80
2022-11-26T11:17:30.083Z,3.80
2022-11-26T11:20:24.741Z,4.97
2022-11-26T11:23:03.672Z,3.53
2022-11-26T11:25:39.478Z,2.95
2022-11-26T11:28:22.691Z,2.15
2022-11-26T11:31:23.795Z,2.03
2022-11-26T11:33:52.670Z,1.90
2022-11-26T11:36:28.776Z,2.33
2022-11-26T11:39:03.818Z,2.13
2022-11-26T11:41:43.381Z,2.22
2022-11-26T11:44:32.092Z,1.85
2022-11-26T11:47:34.358Z,2.20
2022-11-26T11:50:29.896Z,1.85
2022-11-26T11:53:16.015Z,1.95
2022-11-26T11:56:09.586Z,2.45
2022-11-26T11:59:04.894Z,2.90
2022-11-26T12:01:57.884Z,2.28
2022-11-26T12:05:02.612Z,2.05
2022-11-26T12:07:41.795Z,2.80
2022-11-26T12:10:25.365Z,1.90
2022-11-26T12:12:59.409Z,1.45
2022-11-26T12:15:34.007Z,1.80
2022-11-26T12:18:09.421Z,1.80
2022-11-26T12:20:45.368Z,1.65
2022-11-26T12:23:24.908Z,1.48
2022-11-26T12:26:15.181Z,1.60
2022-11-26T12:29:07.090Z,1.85
2022-11-26T12:31:46.635Z,2.10
2022-11-26T12:34:22.542Z,1.40
2022-11-26T12:37:24.885Z,1.48
2022-11-26T12:40:10.909Z,1.60
2022-11-26T12:42:49.392Z,1.52
2022-11-26T12:45:29.712Z,1.80
2022-11-26T12:48:14.920Z,1.80
2022-11-26T12:50:52.160Z,1.60
2022-11-26T12:53:34.587Z,1.75
2022-11-26T12:56:15.026Z,2.45
2022-11-26T12:59:03.918Z,2.33
2022-11-26T13:01:32.105Z,1.65
2022-11-26T13:04:29.427Z,1.90
2022-11-26T13:06:51.286Z,1.60
2022-11-26T13:09:35.903Z,1.77
2022-11-26T13:12:17.927Z,1.98
2022-11-26T13:14:56.745Z,2.30
2022-11-26T13:17:38.431Z,2.60
2022-11-26T13:20:28.265Z,1.88
2022-11-26T13:23:40.689Z,1.92
2022-11-26T13:26:21.280Z,2.30
2022-11-26T13:29:00.500Z,1.73
2022-11-26T13:31:57.647Z,2.15
2022-11-26T13:34:52.894Z,2.17
2022-11-26T13:37:22.209Z,1.70
2022-11-26T13:40:08.527Z,2.25
2022-11-26T13:42:38.764Z,1.92
2022-11-26T13:45:21.549Z,1.65
2022-11-26T13:47:56.818Z,1.77
2022-11-26T13:50:29.432Z,1.85
2022-11-26T13:53:26.555Z,2.07
2022-11-26T13:56:08.169Z,1.60
2022-11-26T13:58:49.439Z,2.13
2022-11-26T14:01:40.597Z,2.00
2022-11-26T14:04:35.482Z,1.90
2022-11-26T14:07:12.183Z,1.77
2022-11-26T14:09:49.032Z,2.00
2022-11-26T14:12:21.646Z,1.92
2022-11-26T14:14:51.081Z,1.40
2022-11-26T14:17:23.234Z,2.00
2022-11-26T14:19:52.098Z,1.30
2022-11-26T14:22:22.846Z,1.63
2022-11-26T14:24:58.987Z,1.70
2022-11-26T14:27:33.058Z,1.75
2022-11-26T14:30:18.643Z,1.70
2022-11-26T14:33:07.331Z,1.20
2022-11-26T14:35:40.891Z,1.50
2022-11-26T14:38:31.253Z,1.50
2022-11-26T14:41:00.957Z,1.70
2022-11-26T14:43:30.891Z,3.92
2022-11-26T14:46:13.820Z,3.05
2022-11-26T14:48:46.626Z,2.45
2022-11-26T14:51:23.200Z,2.00
2022-11-26T14:53:51.325Z,1.63
2022-11-26T14:56:23.214Z,2.38
2022-11-26T14:58:54.096Z,1.83
2022-11-26T15:01:24.767Z,1.90
2022-11-26T15:04:06.250Z,1.75
2022-11-26T15:06:38.866Z,1.95
2022-11-26T15:09:07.131Z,1.70
2022-11-26T15:11:37.708Z,2.33
2022-11-26T15:14:38.500Z,2.70
2022-11-26T15:17:07.233Z,2.15
2022-11-26T15:19:40.672Z,3.17
2022-11-26T15:24:52.759Z,3.00
2022-11-26T15:27:39.727Z,2.70
2022-11-26T15:30:21.810Z,3.03
2022-11-26T15:33:00.329Z,3.30
2022-11-26T15:35:28.636Z,2.90
2022-11-26T15:37:56.133Z,2.67
2022-11-26T15:40:43.982Z,3.13
2022-11-26T15:43:26.335Z,3.17
2022-11-26T15:45:57.344Z,2.80
2022-11-26T15:48:52.363Z,3.03
2022-11-26T15:51:48.540Z,2.67
2022-11-26T15:55:11.006Z,2.72
2022-11-26T15:57:34.510Z,1.95
2022-11-26T16:00:09.705Z,2.50
2022-11-26T16:02:39.335Z,3.00
2022-11-26T16:05:38.729Z,3.38
2022-11-26T16:08:33.817Z,3.15
2022-11-26T16:11:21.828Z,2.30
2022-11-26T16:13:49.079Z,2.65
2022-11-26T16:16:19.623Z,2.80
2022-11-26T16:18:59.750Z,2.72
2022-11-26T16:21:32.262Z,3.42
2022-11-26T16:24:07.980Z,4.22
2022-11-26T16:27:00.730Z,3.45
2022-11-26T16:29:30.348Z,3.97
2022-11-26T16:31:58.118Z,2.83
2022-11-26T16:34:28.945Z,2.33
2022-11-26T16:37:02.671Z,3.00
2022-11-26T16:39:36.165Z,3.03
2022-11-26T16:42:19.764Z,2.70
2022-11-26T16:44:50.572Z,2.88
2022-11-26T16:47:35.734Z,3.35
2022-11-26T16:50:11.909Z,3.30
2022-11-26T16:52:45.174Z,5.65
2022-11-26T16:55:21.975Z,3.05
2022-11-26T16:57:59.827Z,2.85
2022-11-26T17:00:27.880Z,3.08
2022-11-26T17:02:55.375Z,2.28
2022-11-26T17:05:25.082Z,3.17
2022-11-26T17:07:59.062Z,3.03
2022-11-26T17:10:30.780Z,2.38
2022-11-26T17:12:58.272Z,2.70
2022-11-26T17:15:25.486Z,2.83
2022-11-26T17:17:59.227Z,3.20
2022-11-26T17:20:28.972Z,2.50
2022-11-26T17:22:58.668Z,2.63
2022-11-26T17:25:26.839Z,2.75
2022-11-26T17:27:54.149Z,2.35
2022-11-26T17:30:26.478Z,2.72
2022-11-26T17:32:56.327Z,2.85
2022-11-26T17:35:24.170Z,2.80
2022-11-26T17:37:51.392Z,3.08
2022-11-26T17:40:21.291Z,3.22
2022-11-26T17:42:49.808Z,3.58
2022-11-26T17:45:20.353Z,3.60
2022-11-26T17:47:48.789Z,3.47
2022-11-26T17:50:26.252Z,5.05
2022-11-26T17:52:56.062Z,3.97
2022-11-26T17:55:24.931Z,3.90
2022-11-26T17:57:55.448Z,3.47
2022-11-26T18:00:30.863Z,4.05
2022-11-26T18:03:01.116Z,4.05
2022-11-26T18:05:28.810Z,3.40
2022-11-26T18:07:56.123Z,3.13
2022-11-26T18:10:24.180Z,3.88
2022-11-26T18:12:54.067Z,3.85
2022-11-26T18:15:26.249Z,3.85
2022-11-26T18:17:55.235Z,3.55
2022-11-26T18:20:24.940Z,4.50
2022-11-26T18:22:56.979Z,4.05
2022-11-26T18:25:27.107Z,3.53
2022-11-26T18:27:57.618Z,4.00
2022-11-26T18:30:24.994Z,4.10
2022-11-26T18:32:52.792Z,4.88
2022-11-26T18:35:20.044Z,7.90
2022-11-26T18:37:47.281Z,5.80
2022-11-26T18:40:17.048Z,16.17
2022-11-26T18:42:45.457Z,9.45
2022-11-26T18:45:17.560Z,10.25
2022-11-26T18:47:45.227Z,8.95
2022-11-26T18:50:14.039Z,12.57
2022-11-26T18:52:41.755Z,14.20
2022-11-26T18:55:11.466Z,9.93
2022-11-26T18:57:41.043Z,8.55
2022-11-26T19:00:11.012Z,12.82
2022-11-26T19:02:38.323Z,8.30
2022-11-26T19:05:06.411Z,4.32
2022-11-26T19:07:33.940Z,4.50
2022-11-26T19:10:01.252Z,3.58
2022-11-26T19:12:31.081Z,4.00
2022-11-26T19:14:58.289Z,3.53
2022-11-26T19:17:25.739Z,3.85
2022-11-26T19:19:57.469Z,4.00
2022-11-26T19:22:25.441Z,3.47
2022-11-26T19:24:55.179Z,3.53
2022-11-26T19:27:22.436Z,3.40
2022-11-26T19:29:49.660Z,3.83
2022-11-26T19:32:19.372Z,3.20
2022-11-26T19:34:46.576Z,3.60
2022-11-26T19:37:13.790Z,3.05
2022-11-26T19:39:43.404Z,2.95
2022-11-26T19:42:11.211Z,4.45
2022-11-26T19:44:38.908Z,3.78
2022-11-26T19:47:06.613Z,4.20
2022-11-26T19:49:34.507Z,5.40
2022-11-26T19:52:02.314Z,3.78
2022-11-26T19:54:30.038Z,4.45
2022-11-26T19:57:00.037Z,5.72
2022-11-26T19:59:29.644Z,3.40
2022-11-26T20:01:57.256Z,4.30
2022-11-26T20:04:27.523Z,4.07
2022-11-26T20:06:55.433Z,3.70
2022-11-26T20:09:25.693Z,4.35
2022-11-26T20:11:52.874Z,4.47
2022-11-26T20:14:22.327Z,4.07
2022-11-26T20:16:50.206Z,3.47
2022-11-26T20:19:18.605Z,3.60
2022-11-26T20:21:46.326Z,2.47
2022-11-26T20:24:16.760Z,3.08
2022-11-26T20:26:45.636Z,3.95
2022-11-26T20:29:16.861Z,3.50
2022-11-26T20:31:49.607Z,2.65
2022-11-26T20:34:22.890Z,3.90
2022-11-26T20:36:53.348Z,3.15
2022-11-26T20:39:23.084Z,2.88
2022-11-26T20:41:50.404Z,3.25
2022-11-26T20:44:17.901Z,2.55
2022-11-26T20:46:45.112Z,2.38
2022-11-26T20:49:12.336Z,2.80
2022-11-26T20:51:39.776Z,3.08
2022-11-26T20:54:07.519Z,2.80
2022-11-26T20:56:37.775Z,2.45
2022-11-26T20:59:05.532Z,3.03
2022-11-26T21:01:38.194Z,3.00
2022-11-26T21:04:06.797Z,3.17
2022-11-26T21:06:37.380Z,2.85
2022-11-26T21:09:08.289Z,3.33
2022-11-26T21:11:36.344Z,3.28
2022-11-26T21:14:04.473Z,3.40
2022-11-26T21:16:33.045Z,2.88
2022-11-26T21:19:03.199Z,3.50
2022-11-26T21:21:30.712Z,3.63
2022-11-26T21:24:04.469Z,3.28
2022-11-26T21:26:32.321Z,3.13
2022-11-26T21:29:04.724Z,2.45
2022-11-26T21:31:33.026Z,2.35
2022-11-26T21:34:05.425Z,3.03
2022-11-26T21:36:36.371Z,2.55
2022-11-26T21:39:04.822Z,2.38
2022-11-26T21:41:33.710Z,2.78
2022-11-26T21:44:04.260Z,2.47
2022-11-26T21:46:38.531Z,2.33
2022-11-26T21:49:09.066Z,2.45
2022-11-26T21:51:36.882Z,2.70
2022-11-26T21:54:04.915Z,2.38
2022-11-26T21:56:33.064Z,2.05
2022-11-26T21:59:01.699Z,2.40
2022-11-26T22:01:37.018Z,2.03
2022-11-26T22:04:12.382Z,2.20
2022-11-26T22:06:39.976Z,2.08
2022-11-26T22:09:08.229Z,2.50
2022-11-26T22:11:38.646Z,2.35
2022-11-26T22:14:06.731Z,2.30
2022-11-26T22:16:34.773Z,1.90
2022-11-26T22:19:02.938Z,1.90
2022-11-26T22:21:35.172Z,2.03
2022-11-26T22:24:04.082Z,1.98
2022-11-26T22:26:31.743Z,2.10
2022-11-26T22:29:00.032Z,1.85
2022-11-26T22:31:33.401Z,1.80
2022-11-26T22:34:03.775Z,1.90
2022-11-26T22:36:31.201Z,1.73
2022-11-26T22:39:02.226Z,2.10
2022-11-26T22:41:34.360Z,1.90
2022-11-26T22:44:03.895Z,2.08
2022-11-26T22:46:34.096Z,2.33
2022-11-26T22:49:03.041Z,2.42
2022-11-26T22:51:34.688Z,2.00
2022-11-26T22:54:16.616Z,2.05
2022-11-26T22:56:46.902Z,1.73
2022-11-26T22:59:15.073Z,1.52
2022-11-26T23:01:44.807Z,2.13
2022-11-26T23:04:12.618Z,1.90
2022-11-26T23:06:40.299Z,2.13
2022-11-26T23:09:09.069Z,1.77
2022-11-26T23:11:41.170Z,2.53
2022-11-26T23:14:12.082Z,1.88
2022-11-26T23:16:42.712Z,1.80
2022-11-26T23:19:13.758Z,2.13
2022-11-26T23:21:42.841Z,2.25
2022-11-26T23:24:10.957Z,2.28
2022-11-26T23:26:39.959Z,2.00
2022-11-26T23:29:08.587Z,2.10
2022-11-26T23:31:40.628Z,1.95
2022-11-26T23:34:09.585Z,2.30
2022-11-26T23:36:38.145Z,2.15
2022-11-26T23:39:07.610Z,1.58
2022-11-26T23:41:37.915Z,1.80
2022-11-26T23:44:05.378Z,2.38
2022-11-26T23:46:35.311Z,1.50
2022-11-26T23:49:05.161Z,1.90
2022-11-26T23:51:35.150Z,2.35
2022-11-26T23:54:07.542Z,2.08
2022-11-26T23:56:35.669Z,1.88
2022-11-26T23:59:04.413Z,1.73
